createdAt,value
2022-09-21T00:00:13.141Z,99.99
2022-09-21T00:01:13.241Z,99.99
2022-09-21T00:02:13.231Z,99.99
2022-09-21T00:03:13.129Z,99.99
2022-09-21T00:04:14.433Z,99.99
2022-09-21T00:05:13.199Z,99.99
2022-09-21T00:06:13.220Z,99.99
2022-09-21T00:07:13.166Z,99.99
2022-09-21T00:08:13.112Z,99.99
2022-09-21T00:09:13.809Z,99.99
2022-09-21T00:10:13.231Z,99.99
2022-09-21T00:11:13.126Z,99.99
2022-09-21T00:12:13.181Z,99.99
2022-09-21T00:13:13.083Z,99.99
2022-09-21T00:14:13.015Z,99.99
2022-09-21T00:15:13.109Z,99.99
2022-09-21T00:16:12.909Z,99.99
2022-09-21T00:17:12.931Z,99.99
2022-09-21T00:18:13.035Z,99.99
2022-09-21T00:19:13.100Z,99.99
2022-09-21T00:20:13.062Z,99.99
2022-09-21T00:21:12.848Z,99.99
2022-09-21T00:22:12.926Z,99.99
2022-09-21T00:23:12.839Z,99.99
2022-09-21T00:24:12.961Z,99.99
2022-09-21T00:25:12.817Z,99.99
2022-09-21T00:26:12.878Z,99.99
2022-09-21T00:27:12.798Z,99.99
2022-09-21T00:28:12.767Z,99.99
2022-09-21T00:29:12.854Z,99.99
2022-09-21T00:30:12.915Z,99.99
2022-09-21T00:31:12.834Z,99.99
2022-09-21T00:32:12.748Z,99.99
2022-09-21T00:33:12.797Z,99.99
2022-09-21T00:34:12.795Z,99.99
2022-09-21T00:35:12.789Z,99.99
2022-09-21T00:36:12.700Z,99.99
2022-09-21T00:37:12.770Z,99.99
2022-09-21T00:38:12.632Z,99.99
2022-09-21T00:39:12.803Z,99.99
2022-09-21T00:40:12.915Z,99.99
2022-09-21T00:41:12.670Z,99.99
2022-09-21T00:42:12.703Z,99.99
2022-09-21T00:43:12.673Z,99.99
2022-09-21T00:44:12.713Z,99.99
2022-09-21T00:45:12.598Z,99.99
2022-09-21T00:46:12.580Z,99.99
2022-09-21T00:47:12.637Z,99.99
2022-09-21T00:48:12.591Z,99.99
2022-09-21T00:49:12.738Z,99.99
2022-09-21T00:50:12.638Z,99.99
2022-09-21T00:51:12.529Z,99.99
2022-09-21T00:52:12.649Z,99.99
2022-09-21T00:53:12.694Z,99.99
2022-09-21T00:54:12.526Z,99.99
2022-09-21T00:55:12.540Z,99.99
2022-09-21T00:56:12.413Z,99.99
2022-09-21T00:57:12.490Z,99.99
2022-09-21T00:58:12.425Z,99.99
2022-09-21T00:59:12.437Z,99.99
2022-09-21T01:00:12.448Z,99.99
2022-09-21T01:01:12.808Z,99.99
2022-09-21T01:02:12.515Z,99.99
2022-09-21T01:03:12.419Z,99.99
2022-09-21T01:04:12.418Z,99.99
2022-09-21T01:05:12.372Z,99.99
2022-09-21T01:06:12.417Z,99.99
2022-09-21T01:07:12.350Z,99.99
2022-09-21T01:08:12.661Z,99.99
2022-09-21T01:09:12.294Z,99.99
2022-09-21T01:10:19.847Z,99.99
2022-09-21T01:11:12.276Z,99.99
2022-09-21T01:12:12.215Z,99.99
2022-09-21T01:13:12.229Z,99.99
2022-09-21T01:14:12.213Z,99.99
2022-09-21T01:15:12.152Z,99.99
2022-09-21T01:16:12.157Z,99.99
2022-09-21T01:17:12.082Z,99.99
2022-09-21T01:18:12.101Z,99.99
2022-09-21T01:19:12.059Z,99.99
2022-09-21T01:20:12.052Z,99.99
2022-09-21T01:21:12.033Z,99.99
2022-09-21T01:22:12.112Z,99.99
2022-09-21T01:23:19.675Z,99.99
2022-09-21T01:24:12.014Z,99.99
2022-09-21T01:25:11.988Z,99.99
2022-09-21T01:26:11.975Z,99.99
2022-09-21T01:27:11.953Z,99.99
2022-09-21T01:28:11.974Z,99.99
2022-09-21T01:29:11.926Z,99.99
2022-09-21T01:30:11.934Z,99.99
2022-09-21T01:31:11.947Z,99.99
2022-09-21T01:32:11.893Z,99.99
2022-09-21T01:33:11.891Z,99.99
2022-09-21T01:34:11.870Z,99.99
2022-09-21T01:35:11.883Z,99.99
2022-09-21T01:36:11.850Z,99.99
2022-09-21T01:37:11.832Z,99.99
2022-09-21T01:38:11.823Z,99.99
2022-09-21T01:39:11.823Z,99.99
2022-09-21T01:40:11.848Z,99.99
2022-09-21T01:41:11.808Z,99.99
2022-09-21T01:42:11.779Z,99.99
2022-09-21T01:43:11.779Z,99.99
2022-09-21T01:44:11.753Z,99.99
2022-09-21T01:45:11.776Z,99.99
2022-09-21T01:46:11.734Z,99.99
2022-09-21T01:47:11.731Z,99.99
2022-09-21T01:48:11.709Z,99.99
2022-09-21T01:49:14.563Z,99.99
2022-09-21T01:50:11.710Z,99.99
2022-09-21T01:51:11.713Z,99.99
2022-09-21T01:52:11.664Z,99.99
2022-09-21T01:53:11.652Z,99.99
2022-09-21T01:54:11.640Z,99.99
2022-09-21T01:55:11.633Z,99.99
2022-09-21T01:56:11.639Z,99.99
2022-09-21T01:57:11.627Z,99.99
2022-09-21T01:58:11.618Z,99.99
2022-09-21T01:59:11.584Z,99.99
2022-09-21T02:00:11.596Z,99.99
2022-09-21T02:01:11.608Z,99.99
2022-09-21T02:02:11.711Z,99.99
2022-09-21T02:03:11.573Z,99.99
2022-09-21T02:04:11.526Z,99.99
2022-09-21T02:05:11.533Z,99.99
2022-09-21T02:06:11.539Z,99.99
2022-09-21T02:07:11.515Z,99.99
2022-09-21T02:08:11.481Z,99.99
2022-09-21T02:09:11.478Z,99.99
2022-09-21T02:10:11.478Z,99.99
2022-09-21T02:11:11.447Z,99.99
2022-09-21T02:12:14.624Z,99.99
2022-09-21T02:13:12.440Z,99.99
2022-09-21T02:14:11.410Z,99.99
2022-09-21T02:15:11.435Z,99.99
2022-09-21T02:16:11.421Z,99.99
2022-09-21T02:17:11.379Z,99.99
2022-09-21T02:18:11.380Z,99.99
2022-09-21T02:19:11.351Z,99.99
2022-09-21T02:20:11.359Z,99.99
2022-09-21T02:21:11.342Z,99.99
2022-09-21T02:22:11.341Z,99.99
2022-09-21T02:23:11.306Z,99.99
2022-09-21T02:24:11.294Z,99.99
2022-09-21T02:25:11.285Z,99.99
2022-09-21T02:26:11.290Z,99.99
2022-09-21T02:27:11.293Z,99.99
2022-09-21T02:28:11.248Z,99.99
2022-09-21T02:29:11.251Z,99.99
2022-09-21T02:30:11.224Z,99.99
2022-09-21T02:31:11.254Z,99.99
2022-09-21T02:32:11.198Z,99.99
2022-09-21T02:33:11.220Z,99.99
2022-09-21T02:34:11.178Z,99.99
2022-09-21T02:35:11.169Z,99.99
2022-09-21T02:36:11.182Z,99.99
2022-09-21T02:37:11.158Z,99.99
2022-09-21T02:38:11.152Z,99.99
2022-09-21T02:39:11.131Z,99.99
2022-09-21T02:40:11.130Z,99.99
2022-09-21T02:41:11.131Z,99.99
2022-09-21T02:42:11.104Z,99.99
2022-09-21T02:43:11.095Z,99.99
2022-09-21T02:44:11.062Z,99.99
2022-09-21T02:45:11.070Z,99.99
2022-09-21T02:46:11.154Z,99.99
2022-09-21T02:47:11.025Z,99.99
2022-09-21T02:48:11.020Z,99.99
2022-09-21T02:49:11.003Z,99.99
2022-09-21T02:50:11.015Z,99.99
2022-09-21T02:51:10.990Z,99.99
2022-09-21T02:52:10.970Z,99.99
2022-09-21T02:53:10.961Z,99.99
2022-09-21T02:54:10.964Z,99.99
2022-09-21T02:55:10.953Z,99.99
2022-09-21T02:56:10.923Z,99.99
2022-09-21T02:57:10.925Z,99.99
2022-09-21T02:58:10.903Z,99.99
2022-09-21T02:59:10.888Z,99.99
2022-09-21T03:00:10.879Z,99.99
2022-09-21T03:01:10.901Z,99.99
2022-09-21T03:02:10.882Z,99.99
2022-09-21T03:03:10.856Z,99.99
2022-09-21T03:04:10.831Z,99.99
2022-09-21T03:05:10.822Z,99.99
2022-09-21T03:06:10.831Z,99.99
2022-09-21T03:07:10.816Z,99.99
2022-09-21T03:08:10.784Z,99.99
2022-09-21T03:09:10.784Z,99.99
2022-09-21T03:10:10.761Z,99.99
2022-09-21T03:11:10.773Z,99.99
2022-09-21T03:12:10.738Z,99.99
2022-09-21T03:13:10.727Z,99.99
2022-09-21T03:14:10.731Z,99.99
2022-09-21T03:15:10.736Z,99.99
2022-09-21T03:16:10.767Z,99.99
2022-09-21T03:17:10.700Z,99.99
2022-09-21T03:18:10.692Z,99.99
2022-09-21T03:19:10.676Z,99.99
2022-09-21T03:20:10.663Z,99.99
2022-09-21T03:21:10.650Z,99.99
2022-09-21T03:22:10.643Z,99.99
2022-09-21T03:23:10.613Z,99.99
2022-09-21T03:24:10.633Z,99.99
2022-09-21T03:25:10.586Z,99.99
2022-09-21T03:26:10.580Z,99.99
2022-09-21T03:27:10.579Z,99.99
2022-09-21T03:28:10.571Z,99.99
2022-09-21T03:29:10.550Z,99.99
2022-09-21T03:30:11.404Z,99.99
2022-09-21T03:31:10.629Z,99.99
2022-09-21T03:32:10.512Z,99.99
2022-09-21T03:33:10.537Z,99.99
2022-09-21T03:34:10.487Z,99.99
2022-09-21T03:35:10.477Z,99.99
2022-09-21T03:36:10.467Z,99.99
2022-09-21T03:37:10.475Z,99.99
2022-09-21T03:38:10.436Z,99.99
2022-09-21T03:39:10.445Z,99.99
2022-09-21T03:40:10.459Z,99.99
2022-09-21T03:41:10.409Z,99.99
2022-09-21T03:42:10.415Z,99.99
2022-09-21T03:43:10.386Z,99.99
2022-09-21T03:44:10.391Z,99.99
2022-09-21T03:45:10.377Z,99.99
2022-09-21T03:46:10.412Z,99.99
2022-09-21T03:47:10.340Z,99.99
2022-09-21T03:48:10.330Z,99.99
2022-09-21T03:49:10.360Z,99.99
2022-09-21T03:50:10.454Z,99.99
2022-09-21T03:51:10.311Z,99.99
2022-09-21T03:52:10.285Z,99.99
2022-09-21T03:53:10.275Z,99.99
2022-09-21T03:54:10.263Z,99.99
2022-09-21T03:55:10.275Z,99.99
2022-09-21T03:56:10.243Z,99.99
2022-09-21T03:57:10.238Z,99.99
2022-09-21T03:58:10.216Z,99.99
2022-09-21T03:59:13.908Z,99.99
2022-09-21T04:00:10.220Z,99.99
2022-09-21T04:01:10.219Z,99.99
2022-09-21T04:02:10.173Z,99.99
2022-09-21T04:03:10.181Z,99.99
2022-09-21T04:04:10.153Z,99.99
2022-09-21T04:05:10.177Z,99.99
2022-09-21T04:06:10.125Z,99.99
2022-09-21T04:07:10.118Z,99.99
2022-09-21T04:08:10.132Z,99.99
2022-09-21T04:09:10.116Z,99.99
2022-09-21T04:10:10.082Z,99.99
2022-09-21T04:11:10.071Z,99.99
2022-09-21T04:12:10.059Z,99.99
2022-09-21T04:13:10.074Z,99.99
2022-09-21T04:14:10.038Z,99.99
2022-09-21T04:15:10.061Z,99.99
2022-09-21T04:16:10.090Z,99.99
2022-09-21T04:17:10.026Z,99.99
2022-09-21T04:18:09.993Z,99.99
2022-09-21T04:19:09.982Z,99.99
2022-09-21T04:20:10.006Z,99.99
2022-09-21T04:21:09.984Z,99.99
2022-09-21T04:22:10.021Z,99.99
2022-09-21T04:23:09.973Z,99.99
2022-09-21T04:24:09.928Z,99.99
2022-09-21T04:25:09.914Z,99.99
2022-09-21T04:26:09.914Z,99.99
2022-09-21T04:27:09.891Z,99.99
2022-09-21T04:28:09.900Z,99.99
2022-09-21T04:29:09.890Z,99.99
2022-09-21T04:30:09.855Z,99.99
2022-09-21T04:31:09.873Z,99.99
2022-09-21T04:32:09.843Z,99.99
2022-09-21T04:33:09.830Z,99.99
2022-09-21T04:34:09.833Z,99.99
2022-09-21T04:35:09.821Z,99.99
2022-09-21T04:36:09.793Z,99.99
2022-09-21T04:37:09.798Z,99.99
2022-09-21T04:38:09.779Z,99.99
2022-09-21T04:39:09.756Z,99.99
2022-09-21T04:40:09.833Z,99.99
2022-09-21T04:41:09.778Z,99.99
2022-09-21T04:42:09.718Z,99.99
2022-09-21T04:43:09.718Z,99.99
2022-09-21T04:44:09.726Z,99.99
2022-09-21T04:45:09.689Z,99.99
2022-09-21T04:46:09.713Z,99.99
2022-09-21T04:47:09.667Z,99.99
2022-09-21T04:48:09.653Z,99.99
2022-09-21T04:49:09.663Z,99.99
2022-09-21T04:50:09.640Z,99.99
2022-09-21T04:51:09.620Z,99.99
2022-09-21T04:52:09.608Z,99.99
2022-09-21T04:53:09.615Z,99.99
2022-09-21T04:54:09.606Z,99.99
2022-09-21T04:55:09.577Z,99.99
2022-09-21T04:56:09.569Z,99.99
2022-09-21T04:57:09.555Z,99.99
2022-09-21T04:58:09.541Z,99.99
2022-09-21T04:59:09.558Z,99.99
2022-09-21T05:00:09.520Z,99.99
2022-09-21T05:01:09.568Z,99.99
2022-09-21T05:02:09.507Z,99.99
2022-09-21T05:03:09.486Z,99.99
2022-09-21T05:04:09.495Z,99.99
2022-09-21T05:05:09.511Z,99.99
2022-09-21T05:06:09.452Z,99.99
2022-09-21T05:07:09.444Z,99.99
2022-09-21T05:08:09.475Z,99.99
2022-09-21T05:09:09.460Z,99.99
2022-09-21T05:10:09.404Z,99.99
2022-09-21T05:11:09.581Z,99.99
2022-09-21T05:12:09.383Z,99.99
2022-09-21T05:13:09.393Z,99.99
2022-09-21T05:14:09.373Z,99.99
2022-09-21T05:15:09.385Z,99.99
2022-09-21T05:16:09.377Z,99.99
2022-09-21T05:17:09.329Z,99.99
2022-09-21T05:18:09.316Z,99.99
2022-09-21T05:19:09.356Z,99.99
2022-09-21T05:20:09.322Z,99.99
2022-09-21T05:21:09.283Z,99.99
2022-09-21T05:22:09.331Z,99.99
2022-09-21T05:23:12.562Z,99.99
2022-09-21T05:24:10.245Z,99.99
2022-09-21T05:25:09.270Z,99.99
2022-09-21T05:26:09.253Z,99.99
2022-09-21T05:27:09.245Z,99.99
2022-09-21T05:28:09.200Z,99.99
2022-09-21T05:29:09.190Z,99.99
2022-09-21T05:30:09.179Z,99.99
2022-09-21T05:31:17.794Z,99.99
2022-09-21T05:32:10.183Z,99.99
2022-09-21T05:33:09.151Z,99.99
2022-09-21T05:34:09.155Z,99.99
2022-09-21T05:35:09.143Z,99.99
2022-09-21T05:36:09.111Z,99.99
2022-09-21T05:37:09.132Z,99.99
2022-09-21T05:38:09.133Z,99.99
2022-09-21T05:39:09.079Z,99.99
2022-09-21T05:40:09.108Z,99.99
2022-09-21T05:41:09.070Z,99.99
2022-09-21T05:42:09.042Z,99.99
2022-09-21T05:43:09.068Z,99.99
2022-09-21T05:44:09.039Z,99.99
2022-09-21T05:45:09.012Z,99.99
2022-09-21T05:46:09.034Z,99.99
2022-09-21T05:47:08.988Z,99.99
2022-09-21T05:48:09.016Z,99.99
2022-09-21T05:49:08.987Z,99.99
2022-09-21T05:50:09.016Z,99.99
2022-09-21T05:51:08.940Z,99.99
2022-09-21T05:52:08.966Z,99.99
2022-09-21T05:53:08.920Z,99.99
2022-09-21T05:54:08.931Z,99.99
2022-09-21T05:55:08.894Z,99.99
2022-09-21T05:56:08.900Z,99.99
2022-09-21T05:57:08.895Z,99.99
2022-09-21T05:58:08.863Z,99.99
2022-09-21T05:59:08.876Z,99.99
2022-09-21T06:00:08.843Z,99.99
2022-09-21T06:01:08.893Z,99.99
2022-09-21T06:02:08.883Z,99.99
2022-09-21T06:03:08.807Z,99.99
2022-09-21T06:04:08.858Z,99.99
2022-09-21T06:05:08.785Z,99.99
2022-09-21T06:06:08.770Z,99.99
2022-09-21T06:07:08.759Z,99.99
2022-09-21T06:08:08.757Z,99.99
2022-09-21T06:09:08.761Z,99.99
2022-09-21T06:10:08.723Z,99.99
2022-09-21T06:11:08.713Z,99.99
2022-09-21T06:12:08.701Z,99.99
2022-09-21T06:13:08.704Z,99.99
2022-09-21T06:14:08.723Z,99.99
2022-09-21T06:15:08.739Z,99.99
2022-09-21T06:16:08.654Z,99.99
2022-09-21T06:17:08.643Z,99.99
2022-09-21T06:18:08.630Z,99.99
2022-09-21T06:19:08.621Z,99.99
2022-09-21T06:20:08.643Z,99.99
2022-09-21T06:21:08.596Z,99.99
2022-09-21T06:22:08.584Z,99.99
2022-09-21T06:23:08.576Z,99.99
2022-09-21T06:24:08.567Z,99.99
2022-09-21T06:25:08.575Z,99.99
2022-09-21T06:26:08.545Z,99.99
2022-09-21T06:27:08.529Z,99.99
2022-09-21T06:28:08.514Z,99.99
2022-09-21T06:29:08.522Z,99.99
2022-09-21T06:30:08.520Z,99.99
2022-09-21T06:31:08.527Z,99.99
2022-09-21T06:32:08.475Z,99.99
2022-09-21T06:33:08.459Z,99.99
2022-09-21T06:34:08.549Z,99.99
2022-09-21T06:35:08.458Z,99.99
2022-09-21T06:36:08.423Z,99.99
2022-09-21T06:37:08.430Z,99.99
2022-09-21T06:38:08.414Z,99.99
2022-09-21T06:39:08.390Z,99.99
2022-09-21T06:40:08.450Z,99.99
2022-09-21T06:41:08.368Z,99.99
2022-09-21T06:42:08.358Z,99.99
2022-09-21T06:43:08.342Z,99.99
2022-09-21T06:44:08.346Z,99.99
2022-09-21T06:45:08.364Z,99.99
2022-09-21T06:46:08.377Z,99.99
2022-09-21T06:47:08.316Z,99.99
2022-09-21T06:48:08.286Z,99.99
2022-09-21T06:49:08.273Z,99.99
2022-09-21T06:50:08.297Z,99.99
2022-09-21T06:51:08.250Z,99.99
2022-09-21T06:52:11.076Z,99.99
2022-09-21T06:53:08.227Z,99.99
2022-09-21T06:54:08.302Z,99.99
2022-09-21T06:55:08.275Z,99.99
2022-09-21T06:56:08.386Z,99.99
2022-09-21T06:57:08.206Z,99.99
2022-09-21T06:58:08.172Z,99.99
2022-09-21T06:59:08.217Z,99.99
2022-09-21T07:00:08.170Z,99.99
2022-09-21T07:01:08.493Z,99.99
2022-09-21T07:02:08.480Z,99.99
2022-09-21T07:03:08.324Z,99.99
2022-09-21T07:04:08.105Z,99.99
2022-09-21T07:05:08.110Z,99.99
2022-09-21T07:06:08.108Z,99.99
2022-09-21T07:07:08.085Z,99.99
2022-09-21T07:10:05.139Z,99.99
2022-09-21T07:10:14.347Z,99.99
2022-09-21T07:12:18.279Z,99.99
2022-09-21T07:13:18.236Z,99.99
2022-09-21T07:14:18.239Z,99.99
2022-09-21T07:15:18.347Z,99.99
2022-09-21T07:16:19.025Z,99.99
2022-09-21T07:17:18.303Z,99.99
2022-09-21T07:18:18.187Z,99.99
2022-09-21T07:19:18.170Z,99.99
2022-09-21T07:20:18.163Z,99.99
2022-09-21T07:21:18.185Z,99.99
2022-09-21T07:22:18.134Z,99.99
2022-09-21T07:23:18.139Z,99.99
2022-09-21T07:24:18.110Z,99.99
2022-09-21T07:25:18.099Z,99.99
2022-09-21T07:26:18.112Z,99.99
2022-09-21T07:27:18.080Z,99.99
2022-09-21T07:28:18.070Z,99.99
2022-09-21T07:29:18.057Z,99.99
2022-09-21T07:30:18.045Z,99.99
2022-09-21T07:31:18.137Z,99.99
2022-09-21T07:32:18.044Z,99.99
2022-09-21T07:33:18.037Z,99.99
2022-09-21T07:34:18.004Z,99.99
2022-09-21T07:35:18.020Z,99.99
2022-09-21T07:36:18.009Z,99.99
2022-09-21T07:37:17.967Z,99.99
2022-09-21T07:38:17.952Z,99.99
2022-09-21T07:39:17.973Z,99.99
2022-09-21T07:40:20.818Z,99.99
2022-09-21T07:41:18.954Z,99.99
2022-09-21T07:42:17.910Z,99.99
2022-09-21T07:43:17.898Z,99.99
2022-09-21T07:44:17.904Z,99.95
2022-09-21T07:45:17.875Z,99.95
2022-09-21T07:46:17.890Z,99.84
2022-09-21T07:47:17.862Z,99.84
2022-09-21T07:48:17.853Z,99.79
2022-09-21T07:49:17.847Z,99.90
2022-09-21T07:50:17.819Z,99.99
2022-09-21T07:51:17.808Z,99.69
2022-09-21T07:52:17.816Z,99.08
2022-09-21T07:53:17.792Z,98.51
2022-09-21T07:54:17.782Z,98.61
2022-09-21T07:55:17.761Z,99.12
2022-09-21T07:56:17.863Z,99.02
2022-09-21T07:57:17.746Z,99.18
2022-09-21T07:58:17.732Z,99.08
2022-09-21T07:59:17.726Z,98.67
2022-09-21T08:00:17.709Z,98.16
2022-09-21T08:01:17.813Z,98.21
2022-09-21T08:02:17.800Z,98.62
2022-09-21T08:03:17.687Z,98.72
2022-09-21T08:04:17.675Z,98.52
2022-09-21T08:05:17.659Z,98.37
2022-09-21T08:06:17.643Z,97.75
2022-09-21T08:07:17.679Z,96.53
2022-09-21T08:08:17.635Z,96.73
2022-09-21T08:09:17.604Z,96.32
2022-09-21T08:10:17.592Z,96.12
2022-09-21T08:11:17.585Z,96.01
2022-09-21T08:12:17.573Z,95.95
2022-09-21T08:13:17.584Z,95.81
2022-09-21T08:14:20.138Z,96.32
2022-09-21T08:15:43.938Z,96.79
2022-09-21T08:16:18.583Z,95.66
2022-09-21T08:17:17.530Z,94.95
2022-09-21T08:18:17.518Z,95.87
2022-09-21T08:19:17.492Z,95.72
2022-09-21T08:20:17.517Z,95.92
2022-09-21T08:21:17.474Z,95.92
2022-09-21T08:22:17.491Z,95.37
2022-09-21T08:23:17.449Z,94.45
2022-09-21T08:24:17.435Z,94.24
2022-09-21T08:25:17.428Z,93.93
2022-09-21T08:26:17.439Z,94.34
2022-09-21T08:27:17.422Z,94.14
2022-09-21T08:28:17.404Z,93.99
2022-09-21T08:29:17.393Z,93.69
2022-09-21T08:30:17.375Z,93.52
2022-09-21T08:31:17.411Z,93.48
2022-09-21T08:32:39.446Z,90.82
2022-09-21T08:33:18.339Z,90.86
2022-09-21T08:34:17.326Z,91.99
2022-09-21T08:35:17.338Z,92.36
2022-09-21T08:36:17.320Z,92.15
2022-09-21T08:37:17.333Z,93.59
2022-09-21T08:38:17.280Z,92.87
2022-09-21T08:39:17.273Z,93.38
2022-09-21T08:40:17.364Z,93.24
2022-09-21T08:41:17.311Z,92.11
2022-09-21T08:42:17.259Z,91.29
2022-09-21T08:43:17.223Z,90.82
2022-09-21T08:44:17.217Z,91.80
2022-09-21T08:45:18.572Z,90.78
2022-09-21T08:46:17.240Z,90.31
2022-09-21T08:47:17.179Z,90.52
2022-09-21T08:48:17.185Z,91.29
2022-09-21T08:49:17.156Z,90.92
2022-09-21T08:50:17.144Z,91.70
2022-09-21T08:51:17.134Z,90.82
2022-09-21T08:52:17.377Z,90.41
2022-09-21T08:53:17.108Z,91.23
2022-09-21T08:54:17.101Z,92.56
2022-09-21T08:55:17.869Z,90.52
2022-09-21T08:56:17.081Z,90.11
2022-09-21T08:57:17.085Z,90.72
2022-09-21T08:58:17.056Z,90.52
2022-09-21T08:59:17.046Z,91.33
2022-09-21T09:00:17.040Z,91.54
2022-09-21T09:01:17.097Z,91.33
2022-09-21T09:02:17.070Z,91.13
2022-09-21T09:03:17.002Z,90.11
2022-09-21T09:04:16.995Z,90.21
2022-09-21T09:05:17.000Z,90.72
2022-09-21T09:06:16.964Z,90.41
2022-09-21T09:07:17.036Z,90.72
2022-09-21T09:08:16.954Z,91.74
2022-09-21T09:09:16.945Z,92.25
2022-09-21T09:10:16.917Z,92.01
2022-09-21T09:11:16.935Z,91.15
2022-09-21T09:12:16.917Z,90.37
2022-09-21T09:13:16.907Z,89.82
2022-09-21T09:14:16.896Z,89.61
2022-09-21T09:15:16.867Z,88.79
2022-09-21T09:16:16.911Z,88.18
2022-09-21T09:17:16.841Z,88.90
2022-09-21T09:18:16.832Z,88.55
2022-09-21T09:19:16.834Z,89.98
2022-09-21T09:20:16.803Z,89.63
2022-09-21T09:21:26.345Z,89.47
2022-09-21T09:22:17.786Z,89.53
2022-09-21T09:23:16.778Z,88.82
2022-09-21T09:24:16.798Z,87.70
2022-09-21T09:25:16.772Z,87.79
2022-09-21T09:26:16.782Z,88.71
2022-09-21T09:27:16.740Z,88.92
2022-09-21T09:28:16.721Z,87.85
2022-09-21T09:29:16.732Z,87.65
2022-09-21T09:30:16.702Z,87.85
2022-09-21T09:31:16.738Z,87.76
2022-09-21T09:32:16.676Z,87.04
2022-09-21T09:33:16.682Z,86.94
2022-09-21T09:34:16.672Z,86.83
2022-09-21T09:35:16.673Z,87.04
2022-09-21T09:36:16.640Z,87.85
2022-09-21T09:37:16.627Z,87.45
2022-09-21T09:38:16.607Z,86.94
2022-09-21T09:39:16.634Z,86.94
2022-09-21T09:40:16.655Z,86.94
2022-09-21T09:41:16.579Z,85.51
2022-09-21T09:42:16.567Z,85.30
2022-09-21T09:43:16.574Z,86.88
2022-09-21T09:44:16.563Z,86.53
2022-09-21T09:45:16.785Z,85.75
2022-09-21T09:46:16.703Z,86.57
2022-09-21T09:47:16.571Z,86.88
2022-09-21T09:48:16.529Z,85.75
2022-09-21T09:49:16.521Z,86.16
2022-09-21T09:50:16.509Z,85.86
2022-09-21T09:51:16.501Z,86.26
2022-09-21T09:52:16.497Z,87.08
2022-09-21T09:53:16.498Z,86.06
2022-09-21T09:54:16.479Z,86.91
2022-09-21T09:55:16.492Z,86.82
2022-09-21T09:56:16.544Z,86.57
2022-09-21T09:57:16.590Z,86.57
2022-09-21T09:58:16.618Z,87.08
2022-09-21T09:59:16.493Z,86.63
2022-09-21T10:00:16.570Z,86.22
2022-09-21T10:01:16.475Z,87.55
2022-09-21T10:02:16.401Z,84.90
2022-09-21T10:03:16.363Z,84.22
2022-09-21T10:04:16.359Z,84.63
2022-09-21T10:05:16.321Z,85.65
2022-09-21T10:06:16.322Z,83.61
2022-09-21T10:07:16.314Z,83.10
2022-09-21T10:08:16.284Z,84.08
2022-09-21T10:09:16.286Z,85.57
2022-09-21T10:10:16.275Z,86.86
2022-09-21T10:11:16.242Z,84.14
2022-09-21T10:12:16.257Z,82.82
2022-09-21T10:13:16.279Z,82.82
2022-09-21T10:14:16.254Z,83.23
2022-09-21T10:15:16.219Z,82.71
2022-09-21T10:16:16.275Z,83.43
2022-09-21T10:17:16.175Z,82.75
2022-09-21T10:18:16.164Z,83.37
2022-09-21T10:19:16.149Z,83.67
2022-09-21T10:20:16.159Z,82.89
2022-09-21T10:21:16.138Z,83.71
2022-09-21T10:22:16.575Z,84.12
2022-09-21T10:23:16.132Z,83.30
2022-09-21T10:24:16.093Z,85.04
2022-09-21T10:25:16.087Z,85.45
2022-09-21T10:26:16.072Z,85.45
2022-09-21T10:27:16.098Z,85.82
2022-09-21T10:28:16.065Z,85.10
2022-09-21T10:29:16.041Z,84.12
2022-09-21T10:30:16.025Z,84.42
2022-09-21T10:31:16.049Z,84.12
2022-09-21T10:32:16.025Z,84.42
2022-09-21T10:33:16.020Z,85.21
2022-09-21T10:34:15.982Z,85.82
2022-09-21T10:35:15.994Z,85.41
2022-09-21T10:36:15.960Z,84.69
2022-09-21T10:37:15.951Z,85.10
2022-09-21T10:38:21.166Z,85.10
2022-09-21T10:39:16.923Z,84.59
2022-09-21T10:40:15.973Z,84.90
2022-09-21T10:41:15.922Z,84.22
2022-09-21T10:42:15.912Z,85.30
2022-09-21T10:43:15.917Z,85.71
2022-09-21T10:44:15.900Z,85.68
2022-09-21T10:45:15.869Z,86.08
2022-09-21T10:46:15.929Z,85.63
2022-09-21T10:47:16.824Z,85.94
2022-09-21T10:48:15.837Z,85.60
2022-09-21T10:49:15.818Z,86.00
2022-09-21T10:50:15.826Z,83.35
2022-09-21T10:51:15.796Z,83.80
2022-09-21T10:52:15.783Z,83.65
2022-09-21T10:53:15.770Z,82.74
2022-09-21T10:54:15.761Z,83.04
2022-09-21T10:55:15.765Z,83.56
2022-09-21T10:56:17.206Z,83.04
2022-09-21T10:57:15.747Z,83.65
2022-09-21T10:58:15.726Z,83.76
2022-09-21T10:59:15.714Z,82.64
2022-09-21T11:00:15.719Z,83.35
2022-09-21T11:01:16.025Z,83.42
2022-09-21T11:02:15.780Z,82.74
2022-09-21T11:03:15.685Z,83.62
2022-09-21T11:04:15.690Z,83.31
2022-09-21T11:05:15.640Z,82.43
2022-09-21T11:06:15.635Z,82.43
2022-09-21T11:07:15.623Z,81.93
2022-09-21T11:08:15.629Z,80.50
2022-09-21T11:09:15.599Z,82.13
2022-09-21T11:10:15.620Z,81.62
2022-09-21T11:11:15.583Z,81.21
2022-09-21T11:12:15.564Z,82.13
2022-09-21T11:13:15.571Z,82.68
2022-09-21T11:14:15.569Z,82.03
2022-09-21T11:15:15.527Z,81.93
2022-09-21T11:16:15.629Z,83.82
2022-09-21T11:17:15.541Z,82.66
2022-09-21T11:18:15.517Z,83.54
2022-09-21T11:19:15.506Z,81.60
2022-09-21T11:20:15.484Z,80.79
2022-09-21T11:21:15.471Z,81.91
2022-09-21T11:22:15.460Z,81.71
2022-09-21T11:23:15.472Z,82.01
2022-09-21T11:24:15.468Z,82.42
2022-09-21T11:25:15.418Z,81.81
2022-09-21T11:26:15.421Z,80.99
2022-09-21T11:27:15.403Z,80.49
2022-09-21T11:28:15.409Z,80.02
2022-09-21T11:29:15.514Z,80.26
2022-09-21T11:30:15.384Z,80.77
2022-09-21T11:31:15.424Z,80.77
2022-09-21T11:32:15.367Z,81.79
2022-09-21T11:33:15.332Z,81.82
2022-09-21T11:34:15.455Z,82.23
2022-09-21T11:35:15.309Z,80.66
2022-09-21T11:36:15.300Z,81.21
2022-09-21T11:37:15.288Z,82.23
2022-09-21T11:38:15.292Z,82.33
2022-09-21T11:39:15.281Z,82.33
2022-09-21T11:40:15.344Z,82.03
2022-09-21T11:41:15.240Z,82.09
2022-09-21T11:42:15.229Z,81.48
2022-09-21T11:43:15.235Z,82.87
2022-09-21T11:44:18.133Z,83.64
2022-09-21T11:45:15.240Z,82.32
2022-09-21T11:46:15.258Z,79.57
2022-09-21T11:47:15.199Z,79.68
2022-09-21T11:48:15.201Z,77.91
2022-09-21T11:49:15.176Z,77.81
2022-09-21T11:50:31.635Z,79.60
2022-09-21T11:51:16.128Z,79.23
2022-09-21T11:52:15.139Z,77.09
2022-09-21T11:53:15.120Z,77.09
2022-09-21T11:54:15.098Z,76.79
2022-09-21T11:55:15.107Z,77.50
2022-09-21T11:56:15.077Z,77.13
2022-09-21T11:57:15.069Z,77.44
2022-09-21T11:58:15.064Z,78.55
2022-09-21T11:59:15.081Z,79.50
2022-09-21T12:00:15.057Z,77.98
2022-09-21T12:01:15.030Z,77.67
2022-09-21T12:02:15.192Z,79.10
2022-09-21T12:03:16.330Z,77.17
2022-09-21T12:04:15.024Z,75.98
2022-09-21T12:05:14.978Z,75.27
2022-09-21T12:06:14.968Z,75.81
2022-09-21T12:07:14.965Z,76.93
2022-09-21T12:08:14.949Z,77.95
2022-09-21T12:09:14.954Z,78.36
2022-09-21T12:10:15.007Z,78.05
2022-09-21T12:11:14.914Z,78.26
2022-09-21T12:12:14.907Z,78.70
2022-09-21T12:13:14.903Z,78.70
2022-09-21T12:14:14.896Z,79.82
2022-09-21T12:15:14.968Z,79.72
2022-09-21T12:16:14.890Z,79.89
2022-09-21T12:17:14.841Z,80.94
2022-09-21T12:18:14.848Z,80.54
2022-09-21T12:19:14.837Z,80.91
2022-09-21T12:20:15.026Z,81.52
2022-09-21T12:21:14.799Z,81.21
2022-09-21T12:22:14.787Z,80.05
2022-09-21T12:23:15.453Z,80.97
2022-09-21T12:24:14.784Z,80.56
2022-09-21T12:25:14.770Z,80.26
2022-09-21T12:26:14.820Z,80.50
2022-09-21T12:27:14.730Z,79.95
2022-09-21T12:28:14.718Z,79.38
2022-09-21T12:29:14.715Z,79.75
2022-09-21T12:30:14.794Z,78.46
2022-09-21T12:31:14.875Z,77.95
2022-09-21T12:32:14.681Z,78.56
2022-09-21T12:33:14.682Z,79.17
2022-09-21T12:34:14.655Z,78.87
2022-09-21T12:35:14.677Z,78.77
2022-09-21T12:36:14.673Z,78.87
2022-09-21T12:37:14.619Z,79.27
2022-09-21T12:38:14.610Z,77.34
2022-09-21T12:39:14.619Z,77.44
2022-09-21T12:40:14.830Z,77.95
2022-09-21T12:41:14.599Z,77.14
2022-09-21T12:42:14.577Z,77.34
2022-09-21T12:43:14.556Z,77.24
2022-09-21T12:44:14.558Z,77.30
2022-09-21T12:45:14.559Z,78.08
2022-09-21T12:46:14.598Z,79.41
2022-09-21T12:47:14.508Z,77.84
2022-09-21T12:48:14.504Z,78.62
2022-09-21T12:49:14.503Z,77.36
2022-09-21T12:50:14.602Z,77.09
2022-09-21T12:51:14.497Z,74.76
2022-09-21T12:52:14.476Z,75.67
2022-09-21T12:53:14.451Z,77.09
2022-09-21T12:54:14.442Z,77.03